Time;durP1;ratioP1;P1;durP2;ratioP2;P2;SDS_P1;SDS_P2;PMS_P1;PMS_P2;Temp;Humidity;BMP_temperature;BMP_pressure;BME280_temperature;BME280_humidity;BME280_pressure;Samples;Min_cycle;Max_cycle;Signal;HPM_P1;HPM_P2
2022/09/01 00:01:28;;;;;;;10.07;8.87;;;;;;;19.99;81.22;94454.59;4991446;28;20224;-79
2022/09/01 00:04:03;;;;;;;11.17;9.80;;;;;;;20.24;80.56;94485.09;4991961;28;20197;-78
2022/09/01 00:06:33;;;;;;;11.97;9.50;;;;;;;20.00;80.21;94452.78;4991956;28;20196;-79
2022/09/01 00:09:04;;;;;;;10.70;9.03;;;;;;;19.93;80.54;94454.59;4992084;28;20233;-78
2022/09/01 00:11:32;;;;;;;12.37;9.40;;;;;;;20.09;80.55;94482.72;4991929;28;20197;-78
2022/09/01 00:14:01;;;;;;;11.47;10.17;;;;;;;20.01;80.63;94469.94;4991595;28;20224;-77
2022/09/01 00:16:29;;;;;;;11.23;10.13;;;;;;;19.96;80.71;94475.75;4991583;28;20225;-78
2022/09/01 00:18:58;;;;;;;13.83;9.37;;;;;;;19.81;80.79;94438.81;4991586;28;20200;-77
2022/09/01 00:21:30;;;;;;;10.00;8.93;;;;;;;19.89;80.85;94461.97;4991620;28;20201;-78
2022/09/01 00:23:56;;;;;;;13.57;9.53;;;;;;;19.95;80.40;94466.38;4991839;28;20193;-76
2022/09/01 00:26:23;;;;;;;10.20;9.27;;;;;;;19.79;80.43;94440.81;4991508;28;20220;-78
2022/09/01 00:28:50;;;;;;;9.80;8.90;;;;;;;19.95;80.19;94465.56;4991807;28;20204;-78
2022/09/01 00:31:18;;;;;;;10.03;9.13;;;;;;;19.95;80.04;94468.19;4991722;28;20247;-78
2022/09/01 00:33:46;;;;;;;10.80;9.70;;;;;;;19.89;80.40;94466.38;4991229;28;20254;-78
2022/09/01 00:36:14;;;;;;;10.30;8.90;;;;;;;19.88;80.65;94469.97;4991388;28;20224;-80
2022/09/01 00:38:41;;;;;;;9.40;8.47;;;;;;;19.86;80.41;94479.72;4991007;28;20193;-82
2022/09/01 00:41:08;;;;;;;15.80;9.33;;;;;;;19.76;80.87;94480.13;4991366;28;20193;-79
2022/09/01 00:43:38;;;;;;;12.37;9.33;;;;;;;19.62;81.01;94471.56;4991463;28;20189;-82
2022/09/01 00:46:07;;;;;;;12.33;9.53;;;;;;;19.62;81.14;94468.97;4991661;28;20189;-82
2022/09/01 00:48:34;;;;;;;12.93;9.17;;;;;;;19.65;81.01;94483.34;4990858;28;20197;-82
2022/09/01 00:51:02;;;;;;;9.63;8.40;;;;;;;19.62;80.99;94481.94;4990972;28;20208;-80
2022/09/01 00:53:32;;;;;;;13.17;9.30;;;;;;;19.54;80.81;94475.09;4990965;28;20193;-81
2022/09/01 00:55:59;;;;;;;10.43;8.80;;;;;;;19.42;81.01;94468.91;4991072;28;20213;-82
2022/09/01 00:58:27;;;;;;;9.80;8.80;;;;;;;19.40;81.38;94465.72;4991080;28;20197;-80
2022/09/01 01:00:54;;;;;;;12.40;9.87;;;;;;;19.56;81.40;94490.50;4991008;28;20557;-77
2022/09/01 01:03:21;;;;;;;9.80;8.93;;;;;;;19.55;81.43;94488.88;4991047;28;20284;-77
2022/09/01 01:05:53;;;;;;;13.60;9.53;;;;;;;19.53;81.36;94493.47;4991318;28;20560;-78
2022/09/01 01:08:26;;;;;;;9.47;8.63;;;;;;;19.50;81.74;94492.06;4991874;28;20809;-77
2022/09/01 01:10:54;;;;;;;10.20;9.30;;;;;;;19.47;81.89;94489.88;4991191;28;20247;-79
2022/09/01 01:13:23;;;;;;;11.67;10.27;;;;;;;19.58;81.51;94483.28;4990382;28;20225;-80
2022/09/01 01:15:49;;;;;;;11.20;9.77;;;;;;;19.61;81.23;94493.31;4990413;28;20228;-79
2022/09/01 01:18:16;;;;;;;10.63;9.60;;;;;;;19.55;81.47;94488.88;4994555;28;20208;-79
2022/09/01 01:23:35;;;;;;;11.67;9.23;;;;;;;19.36;82.85;94467.09;4990962;28;20192;-79
2022/09/01 01:26:08;;;;;;;12.90;10.93;;;;;;;19.39;83.64;94476.31;4991024;28;20223;-78
2022/09/01 01:28:37;;;;;;;13.87;10.33;;;;;;;19.38;83.77;94485.06;4990503;28;20185;-80
2022/09/01 01:31:10;;;;;;;12.83;10.67;;;;;;;19.32;83.74;94480.66;4990358;28;20211;-80
2022/09/01 01:33:40;;;;;;;11.47;9.63;;;;;;;18.97;83.89;94434.91;4973860;28;20197;-77
2022/09/01 01:36:09;;;;;;;11.00;9.97;;;;;;;19.28;84.29;94485.44;4990806;28;20661;-78
2022/09/01 01:38:36;;;;;;;11.47;10.27;;;;;;;19.25;84.55;94478.84;4991263;28;20189;-79
2022/09/01 01:41:05;;;;;;;14.67;10.33;;;;;;;19.18;84.64;94477.25;4990597;28;20189;-80
2022/09/01 01:43:32;;;;;;;11.93;10.77;;;;;;;19.22;85.19;94494.81;4990769;28;20240;-77
2022/09/01 01:46:01;;;;;;;14.67;10.10;;;;;;;19.20;85.55;94494.19;4990074;28;20758;-78
2022/09/01 01:48:33;;;;;;;11.27;10.07;;;;;;;19.20;86.11;94491.59;4990427;28;20193;-78
2022/09/01 01:51:01;;;;;;;13.07;11.70;;;;;;;19.13;86.30;94489.97;4994749;28;20208;-78
2022/09/01 01:53:28;;;;;;;12.37;10.77;;;;;;;19.17;86.31;94502.38;4995750;28;20203;-78
2022/09/01 01:55:55;;;;;;;12.90;11.57;;;;;;;19.11;86.53;94497.94;5010108;28;20213;-77
2022/09/01 01:58:24;;;;;;;14.63;11.40;;;;;;;19.18;86.84;94508.34;5011199;28;20205;-77
2022/09/01 02:00:54;;;;;;;13.30;11.00;;;;;;;19.02;86.99;94489.56;5001398;28;20265;-77
2022/09/01 02:03:24;;;;;;;12.67;11.33;;;;;;;19.17;87.01;94515.34;4991061;28;20197;-80
2022/09/01 02:05:53;;;;;;;12.30;11.00;;;;;;;19.16;87.24;94513.72;4990458;28;20197;-77
2022/09/01 02:08:24;;;;;;;14.70;12.70;;;;;;;18.95;87.14;94491.31;4990100;28;20189;-77
2022/09/01 02:10:54;;;;;;;12.77;10.37;;;;;;;19.16;87.32;94524.09;4990400;28;20193;-78
2022/09/01 02:13:29;;;;;;;14.37;11.00;;;;;;;19.18;87.32;94516.94;4990095;28;20189;-78
2022/09/01 02:16:03;;;;;;;14.37;11.23;;;;;;;19.13;87.67;94510.72;4989717;28;20267;-78
2022/09/01 02:18:34;;;;;;;12.80;9.93;;;;;;;19.11;87.28;94520.50;4989804;28;20193;-78
2022/09/01 02:21:02;;;;;;;11.43;10.10;;;;;;;19.10;86.70;94514.50;4989895;28;20295;-78
2022/09/01 02:23:30;;;;;;;14.43;10.37;;;;;;;19.05;85.80;94509.91;4990048;28;20212;-78
2022/09/01 02:26:01;;;;;;;12.90;10.47;;;;;;;19.11;85.53;94516.09;4989849;28;20197;-78
2022/09/01 02:28:33;;;;;;;13.70;10.40;;;;;;;19.09;85.33;94512.91;4990092;28;20186;-77
2022/09/01 02:31:02;;;;;;;12.80;10.53;;;;;;;19.09;85.28;94504.34;4989870;28;20649;-79
2022/09/01 02:33:30;;;;;;;13.40;10.53;;;;;;;18.97;85.53;94510.06;4989483;28;20669;-79
2022/09/01 02:35:59;;;;;;;11.30;10.07;;;;;;;18.96;85.59;94518.06;4989580;28;20572;-77
2022/09/01 02:38:27;;;;;;;10.67;9.30;;;;;;;18.91;86.05;94513.44;4989336;28;20674;-78
2022/09/01 02:40:55;;;;;;;12.07;10.53;;;;;;;18.84;86.09;94485.91;4989691;28;20208;-78
2022/09/01 02:43:25;;;;;;;11.27;10.27;;;;;;;18.38;86.27;94422.50;4989977;28;20212;-79
2022/09/01 02:45:56;;;;;;;11.70;9.93;;;;;;;18.89;86.01;94494.69;4989252;28;20272;-77
2022/09/01 02:48:27;;;;;;;11.73;10.63;;;;;;;18.85;86.29;94493.47;4989513;28;20189;-78
2022/09/01 02:50:56;;;;;;;11.90;10.73;;;;;;;18.90;86.01;94503.25;4989652;28;20197;-79
2022/09/01 02:53:23;;;;;;;12.07;10.60;;;;;;;18.89;86.22;94496.47;4989475;28;20644;-80
2022/09/01 02:55:50;;;;;;;12.87;10.30;;;;;;;18.85;86.32;94493.47;4989602;28;20216;-78
2022/09/01 02:58:18;;;;;;;16.57;11.70;;;;;;;18.84;86.48;94497.06;4992438;28;20200;-79
2022/09/01 03:00:46;;;;;;;15.70;11.00;;;;;;;18.84;86.81;94489.28;4992869;28;20351;-78
2022/09/01 03:03:16;;;;;;;13.47;10.43;;;;;;;18.84;86.89;94498.88;4992893;28;20897;-80
2022/09/01 03:05:43;;;;;;;14.87;10.73;;;;;;;18.82;86.94;94498.25;4992637;28;20279;-79
2022/09/01 03:08:15;;;;;;;12.30;11.10;;;;;;;18.78;87.41;94500.41;4993048;28;20267;-79
2022/09/01 03:10:45;;;;;;;11.73;10.63;;;;;;;18.80;87.14;94499.25;4993071;28;20553;-79
2022/09/01 03:13:15;;;;;;;12.53;11.23;;;;;;;18.78;87.31;94497.81;4993139;28;20208;-79
2022/09/01 03:15:43;;;;;;;11.73;10.57;;;;;;;18.73;87.31;94495.81;4992803;28;20680;-80
2022/09/01 03:18:11;;;;;;;11.77;10.67;;;;;;;18.77;87.05;94491.03;4992647;28;20196;-77
2022/09/01 03:20:43;;;;;;;12.73;11.53;;;;;;;18.77;87.17;94484.06;4992734;28;20185;-78
2022/09/01 03:23:14;;;;;;;17.13;11.07;;;;;;;18.34;87.08;94423.88;4992765;28;20280;-77
2022/09/01 03:25:42;;;;;;;13.07;11.77;;;;;;;18.59;86.86;94460.47;4992609;28;20280;-79
2022/09/01 03:28:11;;;;;;;16.10;11.47;;;;;;;18.73;87.09;94492.41;4992377;28;20211;-78
2022/09/01 03:30:43;;;;;;;11.90;10.70;;;;;;;18.73;87.06;94500.19;4992363;28;20280;-76
2022/09/01 03:33:10;;;;;;;12.07;10.87;;;;;;;18.71;86.28;94497.00;4992384;28;20195;-77
2022/09/01 03:35:37;;;;;;;13.23;11.20;;;;;;;18.73;86.15;94502.78;4992456;28;20581;-79
2022/09/01 03:38:06;;;;;;;14.37;10.27;;;;;;;18.68;86.02;94505.94;4992272;28;20284;-78
2022/09/01 03:40:36;;;;;;;11.27;9.63;;;;;;;18.61;86.13;94492.16;4992247;28;20185;-75
2022/09/01 03:43:11;;;;;;;12.47;11.27;;;;;;;18.65;86.31;94498.56;4992021;28;20664;-77
2022/09/01 03:45:38;;;;;;;13.33;10.70;;;;;;;18.41;86.51;94475.72;4992126;28;20295;-78
2022/09/01 03:48:07;;;;;;;12.23;10.77;;;;;;;18.61;86.48;94507.69;4992900;28;20643;-79
2022/09/01 03:50:37;;;;;;;13.13;11.60;;;;;;;18.63;86.61;94504.91;4991919;28;20281;-77
2022/09/01 03:53:07;;;;;;;12.70;11.40;;;;;;;18.76;85.22;94505.00;4991981;28;20199;-78
2022/09/01 03:55:37;;;;;;;11.77;10.67;;;;;;;18.82;84.41;94506.00;4991853;28;20201;-77
2022/09/01 03:58:10;;;;;;;14.10;11.13;;;;;;;18.77;83.58;94504.00;4991946;28;20239;-79
2022/09/01 04:00:41;;;;;;;11.43;10.27;;;;;;;18.61;84.61;94510.28;4992156;28;20673;-77
2022/09/01 04:03:11;;;;;;;12.60;10.57;;;;;;;18.37;85.25;94483.06;4991877;28;20193;-79
2022/09/01 04:05:39;;;;;;;12.07;10.83;;;;;;;18.47;85.98;94517.16;4992144;28;20218;-79
2022/09/01 04:08:10;;;;;;;14.10;10.30;;;;;;;18.45;85.54;94500.22;4990874;28;20292;-80
2022/09/01 04:10:43;;;;;;;16.30;11.40;;;;;;;18.58;85.36;94515.03;4991302;28;20189;-79
2022/09/01 04:13:11;;;;;;;14.53;11.90;;;;;;;18.46;85.69;94501.81;4991563;28;20189;-81
2022/09/01 04:15:38;;;;;;;13.77;11.80;;;;;;;18.53;86.28;94516.41;4991453;28;20575;-79
2022/09/01 04:18:08;;;;;;;13.77;12.17;;;;;;;18.51;86.03;94496.88;4991778;28;20193;-80
2022/09/01 04:20:47;;;;;;;18.30;12.90;;;;;;;18.49;86.93;94515.19;4991725;28;20209;-81
2022/09/01 04:23:25;;;;;;;18.00;12.17;;;;;;;18.35;87.01;94479.03;4992098;28;20189;-82
2022/09/01 04:25:54;;;;;;;13.27;11.90;;;;;;;18.42;87.77;94505.78;4991907;28;20220;-80
2022/09/01 04:28:25;;;;;;;14.87;12.90;;;;;;;18.22;88.12;94482.34;4991539;28;20591;-81
2022/09/01 04:30:57;;;;;;;19.63;12.70;;;;;;;18.40;88.00;94502.59;4991392;28;20740;-81
2022/09/01 04:33:26;;;;;;;15.70;13.43;;;;;;;18.44;88.10;94507.22;4992726;28;20196;-82
2022/09/01 04:35:55;;;;;;;16.53;13.53;;;;;;;18.39;88.06;94493.22;4991318;28;20196;-82
2022/09/01 04:38:28;;;;;;;16.90;13.37;;;;;;;18.35;88.03;94474.69;4991120;28;20203;-81
2022/09/01 04:40:57;;;;;;;16.40;13.77;;;;;;;18.22;88.21;94465.06;4991456;28;20298;-82
2022/09/01 04:43:26;;;;;;;16.37;12.87;;;;;;;18.54;88.32;94509.44;4991247;28;20239;-79
2022/09/01 04:45:55;;;;;;;15.07;13.57;;;;;;;18.62;87.99;94511.09;4991292;28;20212;-81
2022/09/01 04:48:22;;;;;;;14.83;12.77;;;;;;;18.64;87.06;94507.28;4990665;28;20229;-83
2022/09/01 04:50:50;;;;;;;15.40;13.90;;;;;;;18.61;87.43;94512.06;4991312;28;20677;-80
2022/09/01 04:53:18;;;;;;;18.70;13.90;;;;;;;18.66;87.24;94501.94;4991014;28;20192;-83
2022/09/01 04:55:47;;;;;;;15.73;13.40;;;;;;;18.63;87.17;94486.78;4991223;28;20291;-81
2022/09/01 04:58:17;;;;;;;16.43;14.43;;;;;;;18.73;87.71;94497.59;4991208;28;20209;-82
2022/09/01 05:00:46;;;;;;;14.20;12.80;;;;;;;18.84;87.08;94501.44;4996270;28;20273;-83
2022/09/01 05:03:20;;;;;;;16.23;14.53;;;;;;;18.85;87.07;94498.66;4993919;28;20197;-80
2022/09/01 05:05:47;;;;;;;19.07;14.33;;;;;;;18.81;87.47;94500.03;4991717;28;20261;-78
2022/09/01 05:08:16;;;;;;;24.07;14.57;;;;;;;18.89;87.59;94499.88;4991427;28;20194;-78
2022/09/01 05:10:49;;;;;;;19.47;15.80;;;;;;;18.96;87.91;94486.97;4991116;28;20625;-77
2022/09/01 05:13:16;;;;;;;16.33;14.53;;;;;;;18.87;87.56;94462.19;4990306;28;20259;-77
2022/09/01 05:15:46;;;;;;;17.70;15.53;;;;;;;18.89;88.59;94488.72;4990567;28;20200;-76
2022/09/01 05:18:22;;;;;;;22.83;15.97;;;;;;;19.06;88.65;94492.56;4990600;28;20746;-76
2022/09/01 05:20:50;;;;;;;15.30;13.63;;;;;;;18.93;88.12;94436.31;4990679;28;20920;-76
2022/09/01 05:23:18;;;;;;;17.43;14.83;;;;;;;19.37;87.78;94491.25;4990574;28;20680;-77
2022/09/01 05:25:50;;;;;;;20.77;14.77;;;;;;;19.61;86.14;94498.50;4990388;28;20193;-76
2022/09/01 05:28:18;;;;;;;22.43;15.07;;;;;;;19.78;85.46;94491.94;4991145;28;20585;-79
2022/09/01 05:30:47;;;;;;;16.40;14.70;;;;;;;19.95;84.70;94494.94;4990685;28;20197;-80
2022/09/01 05:33:15;;;;;;;16.87;15.07;;;;;;;20.16;83.79;94490.50;4991414;28;20200;-78
2022/09/01 05:35:51;;;;;;;23.63;16.03;;;;;;;20.27;83.11;94487.28;4991202;28;20638;-81
2022/09/01 05:38:19;;;;;;;25.70;15.43;;;;;;;20.32;82.84;94487.47;4990392;28;20311;-79
2022/09/01 05:40:56;;;;;;;20.23;16.27;;;;;;;20.36;82.68;94491.28;4990566;28;20196;-77
2022/09/01 05:43:25;;;;;;;21.67;14.47;;;;;;;20.58;82.20;94494.44;4990222;28;20271;-78
2022/09/01 05:45:53;;;;;;;18.57;16.67;;;;;;;20.50;82.06;94495.47;4990247;28;20197;-81
2022/09/01 05:48:20;;;;;;;17.23;14.13;;;;;;;20.73;81.17;94495.03;4989717;28;20661;-82
2022/09/01 05:50:48;;;;;;;16.90;14.43;;;;;;;20.84;80.89;94488.38;4989935;28;20580;-81
2022/09/01 05:53:16;;;;;;;18.98;15.40;;;;;;;20.93;80.14;94481.94;4989976;28;20219;-81
2022/09/01 05:55:45;;;;;;;17.53;13.17;;;;;;;20.87;79.97;94461.97;4990297;28;20609;-81
2022/09/01 05:58:15;;;;;;;21.67;16.23;;;;;;;21.00;80.18;94500.91;4990300;28;20259;-81
2022/09/01 06:00:43;;;;;;;20.25;17.23;;;;;;;20.84;80.49;94503.97;4990376;28;20276;-79
2022/09/01 06:03:13;;;;;;;21.63;16.00;;;;;;;20.80;80.53;94479.38;4990264;28;20552;-82
2022/09/01 06:05:41;;;;;;;15.48;13.90;;;;;;;21.26;79.90;94488.78;4990668;28;20276;-82
2022/09/01 06:08:09;;;;;;;26.55;16.52;;;;;;;21.33;79.33;94491.38;4990307;28;20204;-80
2022/09/01 06:10:38;;;;;;;23.40;17.27;;;;;;;21.18;79.85;94486.41;4990115;28;20720;-79
2022/09/01 06:13:06;;;;;;;18.15;16.30;;;;;;;21.32;79.76;94479.38;4990154;28;20276;-81
2022/09/01 06:15:37;;;;;;;20.57;17.30;;;;;;;21.54;78.80;94484.06;4989876;28;20540;-80
2022/09/01 06:18:05;;;;;;;17.85;15.95;;;;;;;21.43;79.35;94484.72;4989874;28;20251;-84
2022/09/01 06:20:34;;;;;;;23.58;18.05;;;;;;;21.50;78.39;94456.03;4989679;28;20213;-83
2022/09/01 06:23:02;;;;;;;21.70;16.45;;;;;;;21.75;78.37;94471.66;4990152;28;20197;-81
2022/09/01 06:25:29;;;;;;;25.63;17.33;;;;;;;22.00;77.35;94477.69;4989915;28;20193;-80
2022/09/01 06:27:57;;;;;;;18.65;16.70;;;;;;;22.31;77.32;94490.88;4989876;28;20661;-80
2022/09/01 06:30:25;;;;;;;21.23;16.58;;;;;;;22.59;75.80;94478.16;4989821;28;20228;-83
2022/09/01 06:32:54;;;;;;;22.52;16.67;;;;;;;22.70;75.35;94480.03;4991793;28;20224;-83
2022/09/01 06:35:23;;;;;;;24.15;18.98;;;;;;;22.86;74.44;94483.06;4993605;28;20216;-83
2022/09/01 06:37:51;;;;;;;23.20;18.95;;;;;;;22.98;73.66;94482.16;4993292;28;20238;-80
2022/09/01 06:40:18;;;;;;;21.67;17.67;;;;;;;23.06;73.51;94472.41;4993330;28;20587;-81
2022/09/01 06:42:47;;;;;;;21.77;16.58;;;;;;;23.25;73.50;94482.59;4993284;28;20192;-82
2022/09/01 06:45:14;;;;;;;22.77;17.02;;;;;;;23.44;73.27;94466.88;4993183;28;20193;-78
2022/09/01 06:47:43;;;;;;;24.13;17.90;;;;;;;23.76;72.41;94478.69;4993174;28;20293;-80
2022/09/01 06:50:14;;;;;;;22.73;18.90;;;;;;;23.77;70.33;94475.06;4993706;28;20193;-80
2022/09/01 06:52:41;;;;;;;29.05;20.58;;;;;;;23.40;71.27;94482.22;4993391;28;20574;-81
2022/09/01 06:55:09;;;;;;;23.42;19.90;;;;;;;23.32;72.55;94474.69;4993336;28;20201;-80
2022/09/01 06:57:36;;;;;;;28.15;22.73;;;;;;;23.08;72.92;94479.00;4993288;28;20225;-80
2022/09/01 07:00:16;;;;;;;25.40;22.52;;;;;;;22.70;73.97;94468.81;4993467;28;20248;-80
2022/09/01 07:02:44;;;;;;;26.83;21.27;;;;;;;22.87;74.64;94485.44;4992811;28;20197;-77
2022/09/01 07:05:16;;;;;;;25.92;20.38;;;;;;;23.04;74.26;94470.81;4992645;28;20197;-79
2022/09/01 07:07:44;;;;;;;24.17;21.27;;;;;;;23.23;72.96;94487.25;4992714;28;20225;-78
2022/09/01 07:10:14;;;;;;;22.65;20.25;;;;;;;23.00;73.30;94437.56;4992354;28;20200;-81
2022/09/01 07:12:44;;;;;;;29.00;22.27;;;;;;;23.28;72.91;94474.34;4992866;28;20197;-80
2022/09/01 07:15:15;;;;;;;32.55;23.40;;;;;;;23.20;73.66;94472.03;4993168;28;20232;-80
2022/09/01 07:17:42;;;;;;;30.83;20.52;;;;;;;23.36;74.09;94478.44;4992845;28;20746;-77
2022/09/01 07:20:11;;;;;;;24.85;20.45;;;;;;;23.52;73.18;94475.19;4992806;28;20677;-81
2022/09/01 07:22:41;;;;;;;29.58;22.50;;;;;;;23.53;72.24;94465.53;4993236;28;20217;-82
2022/09/01 07:25:11;;;;;;;27.00;20.38;;;;;;;23.80;72.10;94488.69;4992839;28;20204;-79
2022/09/01 07:27:38;;;;;;;28.77;22.85;;;;;;;23.88;71.17;94481.34;4993017;28;20267;-81
2022/09/01 07:30:08;;;;;;;30.88;22.08;;;;;;;24.00;71.18;94476.09;4992878;28;20197;-80
2022/09/01 07:32:35;;;;;;;29.15;23.35;;;;;;;24.12;71.28;94474.28;4992272;28;20193;-78
2022/09/01 07:35:03;;;;;;;30.35;23.27;;;;;;;24.21;70.68;94483.38;4992299;28;20197;-80
2022/09/01 07:37:36;;;;;;;29.60;23.80;;;;;;;24.30;70.08;94478.59;4992158;28;20217;-80
2022/09/01 07:40:05;;;;;;;31.15;22.88;;;;;;;24.45;69.19;94481.59;4992336;28;20193;-81
2022/09/01 07:42:32;;;;;;;31.45;24.15;;;;;;;24.05;69.23;94476.25;4992560;28;20200;-79
2022/09/01 07:45:00;;;;;;;31.90;21.88;;;;;;;23.94;69.58;94445.66;4991134;28;20203;-79
2022/09/01 07:47:28;;;;;;;28.45;22.02;;;;;;;24.28;69.45;94471.00;4992318;28;20220;-80
2022/09/01 07:49:55;;;;;;;30.85;22.30;;;;;;;24.39;69.01;94479.09;4992249;28;20197;-79
2022/09/01 07:52:22;;;;;;;28.58;22.60;;;;;;;24.22;69.75;94453.63;4992071;28;20196;-78
2022/09/01 07:54:50;;;;;;;30.77;21.92;;;;;;;24.26;69.59;94444.28;4992116;28;20657;-80
2022/09/01 07:57:17;;;;;;;29.83;20.30;;;;;;;24.62;69.42;94483.50;4991825;28;20592;-79
2022/09/01 07:59:44;;;;;;;29.33;21.67;;;;;;;24.76;68.52;94484.84;4992144;28;20703;-79
2022/09/01 08:02:11;;;;;;;33.60;21.65;;;;;;;24.90;68.19;94488.00;4992192;28;20193;-78
2022/09/01 08:04:38;;;;;;;32.60;22.42;;;;;;;24.95;67.30;94486.25;4992619;28;20200;-78
2022/09/01 08:07:05;;;;;;;25.33;19.60;;;;;;;25.13;67.39;94487.97;4991756;28;20200;-78
2022/09/01 08:09:35;;;;;;;26.83;20.05;;;;;;;25.17;66.40;94480.44;4991419;28;20193;-77
2022/09/01 08:12:04;;;;;;;27.02;19.42;;;;;;;25.31;66.34;94478.34;4991449;28;20204;-78
2022/09/01 08:14:31;;;;;;;24.67;20.15;;;;;;;25.30;64.56;94461.03;4991911;28;20637;-79
2022/09/01 08:16:58;;;;;;;22.38;19.35;;;;;;;25.45;64.74;94480.44;4991657;28;20252;-78
2022/09/01 08:19:26;;;;;;;24.48;20.10;;;;;;;25.43;64.59;94471.22;4991643;28;20200;-78
2022/09/01 08:21:53;;;;;;;33.22;20.02;;;;;;;25.62;64.13;94480.47;4991747;28;20866;-78
2022/09/01 08:24:20;;;;;;;23.25;19.25;;;;;;;25.49;64.58;94480.75;4993012;28;20186;-78
2022/09/01 08:26:47;;;;;;;27.45;18.90;;;;;;;25.60;64.48;94472.03;4993456;28;20710;-77
2022/09/01 08:29:15;;;;;;;19.65;16.23;;;;;;;25.83;63.47;94465.91;4991526;28;20665;-76
2022/09/01 08:31:42;;;;;;;22.80;16.73;;;;;;;26.07;62.18;94473.59;4991429;28;20185;-78
2022/09/01 08:34:11;;;;;;;20.48;16.05;;;;;;;26.30;61.55;94470.81;4992703;28;20204;-77
2022/09/01 08:36:38;;;;;;;26.13;17.60;;;;;;;26.29;61.89;94456.09;5012281;28;20185;-78
2022/09/01 08:39:05;;;;;;;24.98;18.05;;;;;;;26.47;60.78;94471.59;5014180;28;20209;-79
2022/09/01 08:41:42;;;;;;;20.98;17.35;;;;;;;26.26;60.72;94467.88;5015784;28;20193;-77
2022/09/01 08:44:18;;;;;;;23.25;17.13;;;;;;;26.01;60.32;94428.19;4999943;28;20560;-78
2022/09/01 08:46:45;;;;;;;15.90;13.90;;;;;;;26.28;60.02;94465.00;4991676;28;20215;-78
2022/09/01 08:49:19;;;;;;;20.67;13.95;;;;;;;26.37;60.32;94466.16;4991371;28;20283;-78
2022/09/01 08:51:50;;;;;;;20.58;14.30;;;;;;;26.59;59.29;94458.34;4991216;28;20189;-78
2022/09/01 08:54:24;;;;;;;15.32;13.50;;;;;;;26.62;58.74;94452.63;4991378;28;20189;-76
2022/09/01 08:56:54;;;;;;;18.98;13.02;;;;;;;26.59;58.65;94439.19;4991180;28;20695;-79
2022/09/01 08:59:27;;;;;;;15.35;12.63;;;;;;;26.74;59.07;94445.44;4991280;28;20221;-77
2022/09/01 09:02:01;;;;;;;22.80;13.30;;;;;;;26.82;58.25;94446.84;4973393;28;20280;-80
2022/09/01 09:04:46;;;;;;;20.40;15.15;;;;;;;26.80;58.32;94437.63;4990915;28;20264;-82
2022/09/01 09:07:20;;;;;;;18.00;15.77;;;;;;;26.85;58.25;94430.59;4990673;28;20208;-77
2022/09/01 09:09:53;;;;;;;15.75;14.10;;;;;;;26.91;58.73;94432.25;4990595;28;20645;-76
2022/09/01 09:12:31;;;;;;;17.00;13.65;;;;;;;27.04;57.88;94425.81;4990408;28;20197;-78
2022/09/01 09:15:15;;;;;;;21.27;15.10;;;;;;;27.00;58.12;94438.66;4990733;28;20232;-77
2022/09/01 09:17:47;;;;;;;14.98;12.75;;;;;;;27.16;58.16;94434.38;4989934;28;20335;-79
2022/09/01 09:20:14;;;;;;;19.63;14.25;;;;;;;27.26;57.24;94423.97;4990827;28;20209;-78
2022/09/01 09:22:43;;;;;;;18.48;13.73;;;;;;;27.40;56.96;94427.00;4990345;28;20207;-79
2022/09/01 09:25:13;;;;;;;14.98;12.55;;;;;;;27.20;56.14;94430.22;4990308;28;20669;-78
2022/09/01 09:27:43;;;;;;;14.65;13.02;;;;;;;27.35;55.78;94420.91;4990588;28;20193;-78
2022/09/01 09:30:15;;;;;;;15.93;13.23;;;;;;;27.33;56.10;94425.59;4990545;28;20281;-79
2022/09/01 09:32:49;;;;;;;15.68;12.65;;;;;;;27.07;55.89;94385.94;4990306;28;20223;-76
2022/09/01 09:35:24;;;;;;;16.38;12.95;;;;;;;27.13;56.38;94377.13;4990120;28;20200;-77
2022/09/01 09:37:51;;;;;;;19.60;13.77;;;;;;;27.35;55.67;94413.03;4989522;28;20216;-78
2022/09/01 09:40:21;;;;;;;14.25;12.55;;;;;;;27.21;55.40;94400.31;4990176;28;20288;-79
2022/09/01 09:43:07;;;;;;;13.77;11.98;;;;;;;27.33;55.74;94405.41;4990047;28;20185;-80
2022/09/01 09:45:37;;;;;;;15.27;11.43;;;;;;;27.36;55.32;94404.09;4990512;28;20195;-79
2022/09/01 09:48:09;;;;;;;17.63;11.82;;;;;;;27.25;55.07;94400.59;4989942;28;20255;-82
2022/09/01 09:50:39;;;;;;;13.82;12.40;;;;;;;27.30;55.18;94395.38;4990150;28;20273;-79
2022/09/01 09:53:14;;;;;;;13.30;11.95;;;;;;;27.33;55.72;94405.41;4990126;28;20200;-80
2022/09/01 09:55:53;;;;;;;16.17;11.38;;;;;;;27.39;55.78;94406.25;4990490;28;20365;-79
2022/09/01 09:58:25;;;;;;;15.90;11.93;;;;;;;27.40;55.42;94398.09;4989550;28;20299;-82
2022/09/01 10:01:01;;;;;;;12.88;11.57;;;;;;;27.47;55.94;94398.69;4989525;28;20367;-80
2022/09/01 10:03:37;;;;;;;16.35;12.27;;;;;;;27.60;55.21;94392.22;4990178;28;20193;-79
2022/09/01 10:06:09;;;;;;;17.27;11.30;;;;;;;27.68;55.11;94388.34;4989977;28;20195;-80
2022/09/01 10:08:43;;;;;;;15.07;12.27;;;;;;;27.78;54.12;94396.34;4993790;28;20685;-80
2022/09/01 10:11:12;;;;;;;20.02;12.52;;;;;;;27.87;52.98;94386.94;4993976;28;20267;-79
2022/09/01 10:13:39;;;;;;;14.55;10.63;;;;;;;27.92;53.15;94388.81;4994258;28;20264;-81
2022/09/01 10:16:19;;;;;;;14.43;11.02;;;;;;;27.57;51.95;94334.13;4993662;28;20196;-78
2022/09/01 10:18:47;;;;;;;11.18;9.98;;;;;;;27.99;51.65;94392.81;4993676;28;20228;-78
2022/09/01 10:21:20;;;;;;;14.50;9.13;;;;;;;28.03;50.99;94384.41;4993711;28;20668;-81
2022/09/01 10:23:47;;;;;;;11.20;9.77;;;;;;;28.07;50.87;94388.13;4993671;28;20197;-79
2022/09/01 10:26:19;;;;;;;13.43;9.95;;;;;;;27.99;50.18;94370.97;4993311;28;20200;-80
2022/09/01 10:28:53;;;;;;;12.52;9.75;;;;;;;28.12;50.55;94382.88;4993686;28;20248;-78
2022/09/01 10:31:51;;;;;;;14.07;10.02;;;;;;;28.01;50.81;94353.88;4993473;28;20195;-80
2022/09/01 10:40:44;;;;;;;12.30;9.57;;;;;;;27.41;51.73;94260.47;4991958;28;20640;-80
2022/09/01 10:43:42;;;;;;;14.32;11.70;;;;;;;27.95;53.12;94335.72;4993260;28;20711;-80
2022/09/01 10:46:39;;;;;;;14.85;11.48;;;;;;;28.20;52.92;94379.78;4933380;29;20195;-82
2022/09/01 10:49:19;;;;;;;15.00;11.27;;;;;;;27.35;53.57;94248.38;4932969;29;20202;-82
2022/09/01 10:51:47;;;;;;;19.65;11.32;;;;;;;27.38;52.77;94242.63;4933334;29;20305;-80
2022/09/01 10:54:54;;;;;;;14.52;12.02;;;;;;;28.11;54.10;94361.06;4933285;29;20629;-81
2022/09/01 10:57:43;;;;;;;21.35;12.20;;;;;;;28.09;53.92;94350.00;4933665;29;20191;-82
2022/09/01 11:00:47;;;;;;;14.05;11.98;;;;;;;27.99;54.01;94345.47;4928294;29;20199;-82
2022/09/01 11:03:52;;;;;;;18.05;11.13;;;;;;;28.12;53.33;94352.13;4933263;29;20198;-79
2022/09/01 11:06:53;;;;;;;11.90;10.25;;;;;;;28.16;52.02;94353.19;4928288;29;20638;-77
2022/09/01 11:09:24;;;;;;;11.10;9.45;;;;;;;27.77;52.62;94296.72;4933058;29;20195;-79
2022/09/01 11:12:11;;;;;;;12.45;9.98;;;;;;;28.17;52.11;94348.72;4933272;29;20202;-79
2022/09/01 11:14:49;;;;;;;17.75;11.15;;;;;;;28.16;52.11;94347.94;4931677;29;20226;-79
2022/09/01 11:17:22;;;;;;;15.15;9.95;;;;;;;28.17;52.16;94349.50;4933115;29;20201;-77
2022/09/01 11:19:57;;;;;;;15.35;9.55;;;;;;;27.98;51.65;94320.25;4932544;29;20234;-77
2022/09/01 11:22:32;;;;;;;13.95;10.38;;;;;;;28.16;51.77;94344.50;4975627;28;20263;-75
2022/09/01 11:25:32;;;;;;;11.57;9.63;;;;;;;28.19;52.34;94342.13;4992830;28;20247;-78
2022/09/01 11:28:02;;;;;;;18.73;10.82;;;;;;;28.25;51.17;94338.50;4992787;28;20197;-78
2022/09/01 11:30:51;;;;;;;13.90;10.05;;;;;;;28.25;51.00;94337.72;4992880;28;20197;-78
2022/09/01 11:33:54;;;;;;;11.15;9.07;;;;;;;28.24;51.65;94334.31;4992842;28;20196;-77
2022/09/01 11:36:28;;;;;;;9.68;8.68;;;;;;;28.30;50.83;94321.16;4932351;29;20273;-77
2022/09/01 11:39:05;;;;;;;10.18;9.02;;;;;;;28.20;50.37;94299.03;4932233;29;20247;-79
2022/09/01 11:41:50;;;;;;;12.93;8.82;;;;;;;28.12;50.76;94281.13;4932131;29;20194;-78
2022/09/01 11:44:24;;;;;;;10.60;8.65;;;;;;;28.32;50.22;94309.31;4932937;29;20694;-77
2022/09/01 11:46:52;;;;;;;11.25;8.60;;;;;;;28.17;50.13;94273.25;4925965;29;20227;-78